createdAt,value
2023-04-16T00:00:48.712Z,4.58
2023-04-16T00:03:16.538Z,4.57
2023-04-16T00:05:43.836Z,4.56
2023-04-16T00:08:12.618Z,4.54
2023-04-16T00:10:40.132Z,4.54
2023-04-16T00:13:07.321Z,4.53
2023-04-16T00:15:35.921Z,4.49
2023-04-16T00:18:03.423Z,4.45
2023-04-16T00:20:30.737Z,4.42
2023-04-16T00:22:58.472Z,4.43
2023-04-16T00:25:25.882Z,4.44
2023-04-16T00:27:53.055Z,4.42
2023-04-16T00:30:20.329Z,4.38
2023-04-16T00:32:48.053Z,4.39
2023-04-16T00:35:15.886Z,4.40
2023-04-16T00:37:43.004Z,4.38
2023-04-16T00:40:10.932Z,4.34
2023-04-16T00:42:39.014Z,4.32
2023-04-16T00:45:06.740Z,4.33
2023-04-16T00:47:33.732Z,4.30
2023-04-16T00:50:00.728Z,4.26
2023-04-16T00:52:27.945Z,4.23
2023-04-16T00:54:55.201Z,4.22
2023-04-16T00:57:24.262Z,4.18
2023-04-16T00:59:52.145Z,4.13
2023-04-16T01:02:19.213Z,4.10
2023-04-16T01:04:46.766Z,4.10
2023-04-16T01:07:14.055Z,4.07
2023-04-16T01:09:41.176Z,4.06
2023-04-16T01:12:08.446Z,3.99
2023-04-16T01:14:36.606Z,3.94
2023-04-16T01:17:04.270Z,3.94
2023-04-16T01:19:31.541Z,3.92
2023-04-16T01:21:59.144Z,3.89
2023-04-16T01:24:26.221Z,3.87
2023-04-16T01:26:53.496Z,3.86
2023-04-16T01:29:20.626Z,3.84
2023-04-16T01:31:49.322Z,3.79
2023-04-16T01:34:25.844Z,3.75
2023-04-16T01:36:53.046Z,3.75
2023-04-16T01:39:20.598Z,3.73
2023-04-16T01:41:48.395Z,3.72
2023-04-16T01:44:16.341Z,3.71
2023-04-16T01:46:43.803Z,3.72
2023-04-16T01:49:11.671Z,3.71
2023-04-16T01:51:38.903Z,3.67
2023-04-16T01:54:06.064Z,3.66
2023-04-16T01:56:35.142Z,3.68
2023-04-16T01:59:02.153Z,3.66
2023-04-16T02:01:35.274Z,3.62
2023-04-16T02:04:03.076Z,3.62
2023-04-16T02:06:31.838Z,3.60
2023-04-16T02:08:59.080Z,3.57
2023-04-16T02:11:27.152Z,3.53
2023-04-16T02:13:54.808Z,3.52
2023-04-16T02:16:22.179Z,3.51
2023-04-16T02:19:18.206Z,3.47
2023-04-16T02:21:46.082Z,3.44
2023-04-16T02:24:13.356Z,3.44
2023-04-16T02:26:41.437Z,3.43
2023-04-16T02:29:12.130Z,3.40
2023-04-16T02:31:43.295Z,3.39
2023-04-16T02:34:11.090Z,3.41
2023-04-16T02:36:38.281Z,3.39
2023-04-16T02:39:05.617Z,3.37
2023-04-16T02:41:32.596Z,3.36
2023-04-16T02:43:59.772Z,3.39
2023-04-16T02:46:27.263Z,3.38
2023-04-16T02:48:54.539Z,3.38
2023-04-16T02:51:21.802Z,3.40
2023-04-16T02:53:48.958Z,3.42
2023-04-16T02:56:16.525Z,3.43
2023-04-16T02:58:43.696Z,3.46
2023-04-16T03:01:11.040Z,3.51
2023-04-16T03:03:38.752Z,3.54
2023-04-16T03:06:06.337Z,3.54
2023-04-16T03:08:33.516Z,3.58
2023-04-16T03:11:00.613Z,3.61
2023-04-16T03:13:27.992Z,3.63
2023-04-16T03:15:55.061Z,3.67
2023-04-16T03:18:22.577Z,3.71
2023-04-16T03:20:54.022Z,3.73
2023-04-16T03:23:21.590Z,3.74
2023-04-16T03:25:48.699Z,3.78
2023-04-16T03:28:18.260Z,3.83
2023-04-16T03:30:51.772Z,3.84
2023-04-16T03:33:19.722Z,3.85
2023-04-16T03:35:47.718Z,3.89
2023-04-16T03:38:14.931Z,3.93
2023-04-16T03:40:42.492Z,3.92
2023-04-16T03:43:10.124Z,3.95
2023-04-16T03:45:38.065Z,4.01
2023-04-16T03:48:05.582Z,4.06
2023-04-16T03:50:32.676Z,4.09
2023-04-16T03:52:59.741Z,4.10
2023-04-16T03:55:26.928Z,4.14
2023-04-16T03:57:54.148Z,4.18
2023-04-16T04:00:21.532Z,4.21
2023-04-16T04:02:56.242Z,4.22
2023-04-16T04:05:23.718Z,4.24
2023-04-16T04:07:52.308Z,4.25
2023-04-16T04:10:19.704Z,4.26
2023-04-16T04:12:47.932Z,4.27
2023-04-16T04:15:15.837Z,4.29
2023-04-16T04:17:43.770Z,4.30
2023-04-16T04:20:12.037Z,4.32
2023-04-16T04:22:40.373Z,4.35
2023-04-16T04:25:08.965Z,4.39
2023-04-16T04:27:37.937Z,4.46
2023-04-16T04:30:06.171Z,4.52
2023-04-16T04:32:33.556Z,4.61
2023-04-16T04:35:01.835Z,4.70
2023-04-16T04:37:29.497Z,4.82
2023-04-16T04:39:57.297Z,4.91
2023-04-16T04:42:25.393Z,4.99
2023-04-16T10:41:14.014Z,11.48
2023-04-16T10:43:42.732Z,11.65
2023-04-16T10:46:26.999Z,11.85
2023-04-16T10:48:54.891Z,11.90
2023-04-16T10:51:26.529Z,11.93
2023-04-16T10:54:10.265Z,11.91
2023-04-16T10:56:37.831Z,11.89
2023-04-16T10:59:06.179Z,11.84
2023-04-16T11:01:53.423Z,11.73
2023-04-16T11:04:20.923Z,11.71
2023-04-16T11:07:08.634Z,11.73
2023-04-16T11:10:05.329Z,11.69
2023-04-16T11:12:39.922Z,11.71
2023-04-16T11:15:15.569Z,11.76
2023-04-16T11:17:47.184Z,11.79
2023-04-16T11:20:21.441Z,11.78
2023-04-16T11:22:55.499Z,11.81
2023-04-16T11:25:23.760Z,11.87
2023-04-16T11:27:51.341Z,11.94
2023-04-16T11:30:19.514Z,12.00
2023-04-16T11:32:46.694Z,12.02
2023-04-16T11:35:15.978Z,12.01
2023-04-16T11:37:43.320Z,12.04
2023-04-16T11:40:11.143Z,12.13
2023-04-16T11:42:42.480Z,12.21
2023-04-16T11:45:11.378Z,12.24
2023-04-16T11:47:52.490Z,12.21
2023-04-16T11:50:27.346Z,12.26
2023-04-16T11:52:59.502Z,12.30
2023-04-16T11:55:27.882Z,12.35
2023-04-16T11:57:55.164Z,12.38
2023-04-16T12:00:24.739Z,12.38
2023-04-16T12:02:55.876Z,12.38
2023-04-16T12:05:31.022Z,12.39
2023-04-16T12:07:58.694Z,12.35
2023-04-16T12:10:26.443Z,12.32
2023-04-16T12:12:53.739Z,12.29
2023-04-16T12:15:21.254Z,12.25
2023-04-16T12:17:48.954Z,12.26
2023-04-16T12:20:16.472Z,12.26
2023-04-16T12:22:49.634Z,12.24
2023-04-16T12:25:17.749Z,12.28
2023-04-16T12:27:53.802Z,12.32
2023-04-16T12:30:26.146Z,12.31
2023-04-16T12:33:19.626Z,12.30
2023-04-16T12:35:47.501Z,12.29
2023-04-16T12:38:17.394Z,12.32
2023-04-16T12:40:44.513Z,12.40
2023-04-16T12:43:11.608Z,12.48
2023-04-16T12:45:39.748Z,12.53
2023-04-16T12:48:07.142Z,12.60
2023-04-16T12:50:35.156Z,12.62
2023-04-16T12:53:02.397Z,12.67
2023-04-16T12:55:29.739Z,12.64
2023-04-16T12:57:56.992Z,12.66
2023-04-16T13:00:24.363Z,12.69
2023-04-16T13:02:52.277Z,12.72
2023-04-16T13:05:19.851Z,12.79
2023-04-16T13:07:47.002Z,12.88
2023-04-16T13:10:14.171Z,12.92
2023-04-16T13:12:41.823Z,12.93
2023-04-16T13:15:09.956Z,12.86
2023-04-16T13:17:37.264Z,12.82
2023-04-16T13:20:05.320Z,12.81
2023-04-16T13:22:32.663Z,12.80
2023-04-16T13:24:59.838Z,12.82
2023-04-16T13:27:27.167Z,12.81
2023-04-16T13:29:54.342Z,12.80
2023-04-16T13:32:21.437Z,12.82
2023-04-16T13:34:48.609Z,12.85
2023-04-16T13:37:15.768Z,12.87
2023-04-16T13:39:42.912Z,12.82
2023-04-16T13:42:10.370Z,12.78
2023-04-16T13:44:37.438Z,12.79
2023-04-16T13:47:04.684Z,12.82
2023-04-16T13:49:35.631Z,12.77
2023-04-16T13:52:03.468Z,12.77
2023-04-16T13:54:31.228Z,12.79
2023-04-16T13:56:58.876Z,12.82
2023-04-16T13:59:26.554Z,12.88
2023-04-16T14:01:53.822Z,12.95
2023-04-16T14:04:22.667Z,12.93
2023-04-16T14:06:50.383Z,12.90
2023-04-16T14:09:17.550Z,12.89
2023-04-16T14:11:44.630Z,12.88
2023-04-16T14:14:12.327Z,12.85
2023-04-16T14:16:39.386Z,12.82
2023-04-16T14:19:06.529Z,12.80
2023-04-16T14:21:34.197Z,12.79
2023-04-16T14:24:01.250Z,12.79
2023-04-16T14:26:28.628Z,12.79
2023-04-16T14:28:56.391Z,12.78
2023-04-16T14:31:23.768Z,12.75
2023-04-16T14:33:51.473Z,12.74
2023-04-16T14:36:18.621Z,12.73
2023-04-16T14:38:45.858Z,12.73
2023-04-16T14:41:13.422Z,12.73
2023-04-16T14:43:41.549Z,12.73
2023-04-16T14:46:08.900Z,12.72
2023-04-16T14:48:36.300Z,12.70
2023-04-16T14:51:03.516Z,12.71
2023-04-16T14:53:31.832Z,12.74
2023-04-16T14:55:59.288Z,12.73
2023-04-16T14:58:26.707Z,12.69
2023-04-16T15:00:54.073Z,12.64
2023-04-16T15:03:22.321Z,12.59
2023-04-16T15:05:55.545Z,12.55
2023-04-16T15:08:23.716Z,12.50
2023-04-16T15:10:51.642Z,12.45
2023-04-16T15:13:20.816Z,12.42
2023-04-16T15:15:48.361Z,12.39
2023-04-16T15:18:16.642Z,12.36
2023-04-16T15:20:43.615Z,12.30
2023-04-16T15:23:11.205Z,12.26
2023-04-16T15:25:38.624Z,12.21
2023-04-16T15:28:06.775Z,12.19
2023-04-16T15:30:34.467Z,12.14
2023-04-16T15:33:01.698Z,12.10
2023-04-16T15:35:29.046Z,12.06
2023-04-16T15:37:56.405Z,12.01
2023-04-16T15:40:23.553Z,11.96
2023-04-16T15:42:51.002Z,11.92
2023-04-16T15:45:18.163Z,11.90
2023-04-16T15:47:48.191Z,11.86
2023-04-16T15:50:15.637Z,11.84
2023-04-16T15:52:43.399Z,11.81
2023-04-16T15:55:10.895Z,11.77
2023-04-16T15:57:38.620Z,11.73
2023-04-16T16:00:19.890Z,11.69
2023-04-16T16:02:48.251Z,11.65
2023-04-16T16:05:16.765Z,11.61
2023-04-16T16:07:44.130Z,11.57
2023-04-16T16:10:13.546Z,11.53
2023-04-16T16:12:41.911Z,11.49
2023-04-16T16:15:11.307Z,11.43
2023-04-16T16:17:39.440Z,11.39
2023-04-16T16:20:10.753Z,11.34
2023-04-16T16:22:39.533Z,11.30
2023-04-16T16:25:07.767Z,11.24
2023-04-16T22:58:20.633Z,6.14
2023-04-16T23:00:48.945Z,6.12
2023-04-16T23:03:16.225Z,6.10
2023-04-16T23:05:43.449Z,6.08
2023-04-16T23:08:10.884Z,6.04
2023-04-16T23:10:38.230Z,6.00
2023-04-16T23:13:05.488Z,5.96
2023-04-16T23:15:32.808Z,5.92
2023-04-16T23:17:59.944Z,5.91
2023-04-16T23:20:26.998Z,5.90
2023-04-16T23:22:54.387Z,5.89
2023-04-16T23:25:22.765Z,5.87
2023-04-16T23:27:49.995Z,5.86
2023-04-16T23:30:17.406Z,5.85
2023-04-16T23:32:45.287Z,5.83
2023-04-16T23:35:12.305Z,5.81
2023-04-16T23:37:40.393Z,5.79
2023-04-16T23:40:08.473Z,5.78
2023-04-16T23:42:35.815Z,5.76
2023-04-16T23:45:02.951Z,5.74
2023-04-16T23:47:30.381Z,5.71
2023-04-16T23:49:57.655Z,5.69
2023-04-16T23:52:24.716Z,5.66
2023-04-16T23:54:51.731Z,5.64
2023-04-16T23:57:18.880Z,5.62
2023-04-16T23:59:46.338Z,5.60
